sensor_id;sensor_type;location;lat;lon;timestamp;pressure;altitude;pressure_sealevel;temperature
76541;BMP280;65385;55.772;37.658;2023-04-08T00:00:50;100910.88;;;4.12
76541;BMP280;65385;55.772;37.658;2023-04-08T00:01:50;100912.84;;;4.10
76541;BMP280;65385;55.772;37.658;2023-04-08T00:02:51;100899.91;;;4.10
76541;BMP280;65385;55.772;37.658;2023-04-08T00:03:51;100907.31;;;4.13
76541;BMP280;65385;55.772;37.658;2023-04-08T00:04:52;100908.94;;;4.14
76541;BMP280;65385;55.772;37.658;2023-04-08T00:05:53;100895.34;;;4.12
76541;BMP280;65385;55.772;37.658;2023-04-08T00:06:53;100914.47;;;4.11
76541;BMP280;65385;55.772;37.658;2023-04-08T00:07:54;100908.84;;;4.07
76541;BMP280;65385;55.772;37.658;2023-04-08T00:08:54;100917.22;;;4.10
76541;BMP280;65385;55.772;37.658;2023-04-08T00:09:55;100904.66;;;4.06
76541;BMP280;65385;55.772;37.658;2023-04-08T00:10:56;100904.47;;;4.08
76541;BMP280;65385;55.772;37.658;2023-04-08T00:11:57;100908.47;;;4.11
76541;BMP280;65385;55.772;37.658;2023-04-08T00:12:57;100907.06;;;4.08
76541;BMP280;65385;55.772;37.658;2023-04-08T00:14:02;100914.84;;;4.08
76541;BMP280;65385;55.772;37.658;2023-04-08T00:15:02;100907.25;;;4.06
76541;BMP280;65385;55.772;37.658;2023-04-08T00:16:04;100908.38;;;4.04
76541;BMP280;65385;55.772;37.658;2023-04-08T00:17:04;100910.00;;;4.05
76541;BMP280;65385;55.772;37.658;2023-04-08T00:18:06;100904.19;;;4.03
76541;BMP280;65385;55.772;37.658;2023-04-08T00:19:07;100904.41;;;4.01
76541;BMP280;65385;55.772;37.658;2023-04-08T00:20:08;100907.16;;;4.00
76541;BMP280;65385;55.772;37.658;2023-04-08T00:21:09;100910.34;;;4.02
76541;BMP280;65385;55.772;37.658;2023-04-08T00:22:10;100902.56;;;4.02
76541;BMP280;65385;55.772;37.658;2023-04-08T00:23:10;100904.41;;;4.01
76541;BMP280;65385;55.772;37.658;2023-04-08T00:24:11;100906.53;;;3.98
76541;BMP280;65385;55.772;37.658;2023-04-08T00:25:12;100908.47;;;3.96
76541;BMP280;65385;55.772;37.658;2023-04-08T00:26:12;100903.47;;;3.94
76541;BMP280;65385;55.772;37.658;2023-04-08T00:27:14;100899.69;;;3.90
76541;BMP280;65385;55.772;37.658;2023-04-08T00:28:15;100900.47;;;3.91
76541;BMP280;65385;55.772;37.658;2023-04-08T00:29:16;100906.81;;;3.88
76541;BMP280;65385;55.772;37.658;2023-04-08T00:30:17;100902.44;;;3.89
76541;BMP280;65385;55.772;37.658;2023-04-08T00:31:19;100902.81;;;3.86
76541;BMP280;65385;55.772;37.658;2023-04-08T00:32:19;100907.00;;;3.87
76541;BMP280;65385;55.772;37.658;2023-04-08T00:33:20;100908.59;;;3.88
76541;BMP280;65385;55.772;37.658;2023-04-08T00:34:21;100901.84;;;3.87
76541;BMP280;65385;55.772;37.658;2023-04-08T00:35:21;100908.97;;;3.85
76541;BMP280;65385;55.772;37.658;2023-04-08T00:36:22;100908.78;;;3.86
76541;BMP280;65385;55.772;37.658;2023-04-08T00:37:25;100908.16;;;3.84
76541;BMP280;65385;55.772;37.658;2023-04-08T00:38:26;100902.19;;;3.84
76541;BMP280;65385;55.772;37.658;2023-04-08T00:39:26;100905.75;;;3.83
76541;BMP280;65385;55.772;37.658;2023-04-08T00:40:27;100904.13;;;3.82
76541;BMP280;65385;55.772;37.658;2023-04-08T00:41:28;100909.31;;;3.82
76541;BMP280;65385;55.772;37.658;2023-04-08T00:42:29;100905.31;;;3.79
76541;BMP280;65385;55.772;37.658;2023-04-08T00:43:31;100914.47;;;3.82
76541;BMP280;65385;55.772;37.658;2023-04-08T00:44:32;100905.91;;;3.81
76541;BMP280;65385;55.772;37.658;2023-04-08T00:45:32;100907.69;;;3.81
76541;BMP280;65385;55.772;37.658;2023-04-08T00:46:37;100903.16;;;3.83
76541;BMP280;65385;55.772;37.658;2023-04-08T00:47:38;100905.75;;;3.83
76541;BMP280;65385;55.772;37.658;2023-04-08T00:48:39;100911.09;;;3.81
76541;BMP280;65385;55.772;37.658;2023-04-08T00:49:40;100906.88;;;3.80
76541;BMP280;65385;55.772;37.658;2023-04-08T00:50:42;100912.25;;;3.79
76541;BMP280;65385;55.772;37.658;2023-04-08T00:51:43;100905.19;;;3.73
76541;BMP280;65385;55.772;37.658;2023-04-08T00:52:43;100906.81;;;3.74
76541;BMP280;65385;55.772;37.658;2023-04-08T00:53:44;100903.63;;;3.72
76541;BMP280;65385;55.772;37.658;2023-04-08T00:54:45;100898.63;;;3.70
76541;BMP280;65385;55.772;37.658;2023-04-08T00:55:45;100903.00;;;3.70
76541;BMP280;65385;55.772;37.658;2023-04-08T00:56:46;100907.38;;;3.69
76541;BMP280;65385;55.772;37.658;2023-04-08T00:57:47;100905.59;;;3.70
76541;BMP280;65385;55.772;37.658;2023-04-08T00:58:49;100905.59;;;3.70
76541;BMP280;65385;55.772;37.658;2023-04-08T00:59:50;100905.94;;;3.67
76541;BMP280;65385;55.772;37.658;2023-04-08T01:01:02;100903.16;;;3.68
76541;BMP280;65385;55.772;37.658;2023-04-08T01:02:15;100910.75;;;3.70
76541;BMP280;65385;55.772;37.658;2023-04-08T01:07:28;100912.53;;;3.69
76541;BMP280;65385;55.772;37.658;2023-04-08T01:08:31;100903.34;;;3.67
76541;BMP280;65385;55.772;37.658;2023-04-08T01:09:35;100909.50;;;3.65
76541;BMP280;65385;55.772;37.658;2023-04-08T01:10:39;100911.47;;;3.63
76541;BMP280;65385;55.772;37.658;2023-04-08T01:11:43;100910.03;;;3.61
76541;BMP280;65385;55.772;37.658;2023-04-08T01:12:50;100907.63;;;3.59
76541;BMP280;65385;55.772;37.658;2023-04-08T01:13:52;100910.56;;;3.56
76541;BMP280;65385;55.772;37.658;2023-04-08T01:14:59;100910.56;;;3.56
76541;BMP280;65385;55.772;37.658;2023-04-08T01:16:00;100903.16;;;3.53
76541;BMP280;65385;55.772;37.658;2023-04-08T01:17:02;100905.09;;;3.51
76541;BMP280;65385;55.772;37.658;2023-04-08T01:18:06;100908.50;;;3.52
76541;BMP280;65385;55.772;37.658;2023-04-08T01:19:07;100907.88;;;3.50
76541;BMP280;65385;55.772;37.658;2023-04-08T01:20:10;100909.66;;;3.49
76541;BMP280;65385;55.772;37.658;2023-04-08T01:21:13;100903.69;;;3.49
76541;BMP280;65385;55.772;37.658;2023-04-08T01:25:05;100903.63;;;3.42
76541;BMP280;65385;55.772;37.658;2023-04-08T01:26:19;100909.94;;;3.40
76541;BMP280;65385;55.772;37.658;2023-04-08T01:27:21;100903.97;;;3.39
76541;BMP280;65385;55.772;37.658;2023-04-08T01:28:23;100905.75;;;3.39
76541;BMP280;65385;55.772;37.658;2023-04-08T01:29:25;100913.31;;;3.40
76541;BMP280;65385;55.772;37.658;2023-04-08T01:30:27;100902.50;;;3.37
76541;BMP280;65385;55.772;37.658;2023-04-08T01:31:31;100905.91;;;3.37
76541;BMP280;65385;55.772;37.658;2023-04-08T01:32:32;100910.28;;;3.37
76541;BMP280;65385;55.772;37.658;2023-04-08T01:33:33;100906.28;;;3.34
76541;BMP280;65385;55.772;37.658;2023-04-08T01:34:35;100909.84;;;3.33
76541;BMP280;65385;55.772;37.658;2023-04-08T01:35:37;100904.81;;;3.32
76541;BMP280;65385;55.772;37.658;2023-04-08T01:36:39;100914.19;;;3.33
76541;BMP280;65385;55.772;37.658;2023-04-08T01:37:41;100910.16;;;3.30
76541;BMP280;65385;55.772;37.658;2023-04-08T01:38:42;100905.38;;;3.27
76541;BMP280;65385;55.772;37.658;2023-04-08T01:39:43;100911.34;;;3.28
76541;BMP280;65385;55.772;37.658;2023-04-08T01:40:46;100902.94;;;3.26
76541;BMP280;65385;55.772;37.658;2023-04-08T01:41:49;100910.88;;;3.24
76541;BMP280;65385;55.772;37.658;2023-04-08T01:42:55;100902.88;;;3.19
76541;BMP280;65385;55.772;37.658;2023-04-08T01:43:56;100901.25;;;3.18
76541;BMP280;65385;55.772;37.658;2023-04-08T01:44:58;100902.41;;;3.15
76541;BMP280;65385;55.772;37.658;2023-04-08T01:46:00;100901.59;;;3.15
76541;BMP280;65385;55.772;37.658;2023-04-08T01:47:01;100905.97;;;3.14
76541;BMP280;65385;55.772;37.658;2023-04-08T01:48:02;100906.31;;;3.11
76541;BMP280;65385;55.772;37.658;2023-04-08T01:49:05;100911.50;;;3.11
76541;BMP280;65385;55.772;37.658;2023-04-08T01:50:08;100911.00;;;3.08
76541;BMP280;65385;55.772;37.658;2023-04-08T01:51:10;100913.00;;;3.06
76541;BMP280;65385;55.772;37.658;2023-04-08T01:52:11;100908.00;;;3.04
76541;BMP280;65385;55.772;37.658;2023-04-08T01:53:12;100907.03;;;3.05
76541;BMP280;65385;55.772;37.658;2023-04-08T01:54:13;100907.19;;;3.04
76541;BMP280;65385;55.772;37.658;2023-04-08T01:55:16;100908.16;;;3.03
76541;BMP280;65385;55.772;37.658;2023-04-08T01:56:20;100905.56;;;3.03
76541;BMP280;65385;55.772;37.658;2023-04-08T01:57:23;100907.34;;;3.02
76541;BMP280;65385;55.772;37.658;2023-04-08T01:58:26;100909.75;;;3.04
76541;BMP280;65385;55.772;37.658;2023-04-08T01:59:33;100909.75;;;3.04
76541;BMP280;65385;55.772;37.658;2023-04-08T02:00:35;100906.09;;;2.98
76541;BMP280;65385;55.772;37.658;2023-04-08T02:01:38;100904.31;;;2.99
76541;BMP280;65385;55.772;37.658;2023-04-08T02:02:41;100904.50;;;2.97
76541;BMP280;65385;55.772;37.658;2023-04-08T02:03:43;100905.63;;;2.95
76541;BMP280;65385;55.772;37.658;2023-04-08T02:04:44;100908.41;;;2.93
76541;BMP280;65385;55.772;37.658;2023-04-08T02:05:45;100905.53;;;2.88
76541;BMP280;65385;55.772;37.658;2023-04-08T02:06:45;100911.34;;;2.90
76541;BMP280;65385;55.772;37.658;2023-04-08T02:07:47;100910.72;;;2.88
76541;BMP280;65385;55.772;37.658;2023-04-08T02:08:48;100910.88;;;2.87
76541;BMP280;65385;55.772;37.658;2023-04-08T02:09:49;100916.22;;;2.85
76541;BMP280;65385;55.772;37.658;2023-04-08T02:10:50;100910.25;;;2.85
76541;BMP280;65385;55.772;37.658;2023-04-08T02:11:51;100907.84;;;2.83
76541;BMP280;65385;55.772;37.658;2023-04-08T02:12:51;100902.19;;;2.79
76541;BMP280;65385;55.772;37.658;2023-04-08T02:13:52;100916.72;;;2.80
76541;BMP280;65385;55.772;37.658;2023-04-08T02:14:53;100908.97;;;2.80
76541;BMP280;65385;55.772;37.658;2023-04-08T02:16:18;100902.72;;;2.75
76541;BMP280;65385;55.772;37.658;2023-04-08T02:17:31;100909.66;;;2.74
76541;BMP280;65385;55.772;37.658;2023-04-08T02:18:34;100918.38;;;2.73
76541;BMP280;65385;55.772;37.658;2023-04-08T02:19:43;100907.59;;;2.70
76541;BMP280;65385;55.772;37.658;2023-04-08T02:20:49;100906.81;;;2.69
76541;BMP280;65385;55.772;37.658;2023-04-08T02:21:58;100907.59;;;2.70
76541;BMP280;65385;55.772;37.658;2023-04-08T02:23:13;100913.53;;;2.70
76541;BMP280;65385;55.772;37.658;2023-04-08T02:24:17;100911.97;;;2.69
76541;BMP280;65385;55.772;37.658;2023-04-08T02:25:21;100909.38;;;2.69
76541;BMP280;65385;55.772;37.658;2023-04-08T02:26:23;100911.97;;;2.69
76541;BMP280;65385;55.772;37.658;2023-04-08T02:27:27;100912.78;;;2.70
76541;BMP280;65385;55.772;37.658;2023-04-08T02:28:29;100911.97;;;2.69
76541;BMP280;65385;55.772;37.658;2023-04-08T02:29:31;100912.94;;;2.68
76541;BMP280;65385;55.772;37.658;2023-04-08T02:30:35;100910.34;;;2.68
76541;BMP280;65385;55.772;37.658;2023-04-08T02:31:37;100915.84;;;2.65
76541;BMP280;65385;55.772;37.658;2023-04-08T02:32:41;100910.69;;;2.65
76541;BMP280;65385;55.772;37.658;2023-04-08T02:33:43;100910.69;;;2.65
76541;BMP280;65385;55.772;37.658;2023-04-08T02:34:44;100915.69;;;2.67
76541;BMP280;65385;55.772;37.658;2023-04-08T02:35:46;100916.66;;;2.66
76541;BMP280;65385;55.772;37.658;2023-04-08T02:36:47;100913.44;;;2.64
76541;BMP280;65385;55.772;37.658;2023-04-08T02:37:50;100915.84;;;2.65
76541;BMP280;65385;55.772;37.658;2023-04-08T02:38:51;100918.44;;;2.65
76541;BMP280;65385;55.772;37.658;2023-04-08T02:39:52;100920.69;;;2.68
76541;BMP280;65385;55.772;37.658;2023-04-08T02:40:52;100921.28;;;2.70
76541;BMP280;65385;55.772;37.658;2023-04-08T02:41:53;100917.13;;;2.69
76541;BMP280;65385;55.772;37.658;2023-04-08T02:42:56;100920.69;;;2.68
76541;BMP280;65385;55.772;37.658;2023-04-08T02:43:57;100917.13;;;2.69
76541;BMP280;65385;55.772;37.658;2023-04-08T02:44:58;100929.03;;;2.70
76541;BMP280;65385;55.772;37.658;2023-04-08T02:45:59;100931.63;;;2.70
76541;BMP280;65385;55.772;37.658;2023-04-08T02:47:02;100928.88;;;2.72
76541;BMP280;65385;55.772;37.658;2023-04-08T02:48:03;100921.28;;;2.70
76541;BMP280;65385;55.772;37.658;2023-04-08T02:49:06;100914.22;;;2.64
76541;BMP280;65385;55.772;37.658;2023-04-08T02:50:08;100925.50;;;2.71
76541;BMP280;65385;55.772;37.658;2023-04-08T02:51:08;100924.69;;;2.71
76541;BMP280;65385;55.772;37.658;2023-04-08T02:52:09;100922.47;;;2.68
76541;BMP280;65385;55.772;37.658;2023-04-08T02:53:09;100928.88;;;2.72
76541;BMP280;65385;55.772;37.658;2023-04-08T02:54:11;100920.31;;;2.71
76541;BMP280;65385;55.772;37.658;2023-04-08T02:55:11;100926.13;;;2.73
76541;BMP280;65385;55.772;37.658;2023-04-08T02:56:12;100927.41;;;2.77
76541;BMP280;65385;55.772;37.658;2023-04-08T02:57:13;100925.63;;;2.78
76541;BMP280;65385;55.772;37.658;2023-04-08T02:58:13;100921.72;;;2.82
76541;BMP280;65385;55.772;37.658;2023-04-08T02:59:14;100928.16;;;2.86
76541;BMP280;65385;55.772;37.658;2023-04-08T03:00:15;100929.59;;;2.89
76541;BMP280;65385;55.772;37.658;2023-04-08T03:01:16;100928.72;;;2.96
76541;BMP280;65385;55.772;37.658;2023-04-08T03:02:17;100929.41;;;3.13
76541;BMP280;65385;55.772;37.658;2023-04-08T03:03:17;100930.97;;;3.37
76541;BMP280;65385;55.772;37.658;2023-04-08T03:04:18;100927.34;;;3.60
76541;BMP280;65385;55.772;37.658;2023-04-08T03:05:18;100927.72;;;3.87
76541;BMP280;65385;55.772;37.658;2023-04-08T03:06:19;100927.06;;;4.14
76541;BMP280;65385;55.772;37.658;2023-04-08T03:07:19;100931.09;;;4.38
76541;BMP280;65385;55.772;37.658;2023-04-08T03:08:20;100933.31;;;4.62
76541;BMP280;65385;55.772;37.658;2023-04-08T03:09:21;100926.00;;;4.87
76541;BMP280;65385;55.772;37.658;2023-04-08T03:10:21;100922.78;;;5.13
76541;BMP280;65385;55.772;37.658;2023-04-08T03:11:22;100925.59;;;5.39
76541;BMP280;65385;55.772;37.658;2023-04-08T03:12:23;100928.50;;;5.64
76541;BMP280;65385;55.772;37.658;2023-04-08T03:13:23;100935.03;;;5.94
76541;BMP280;65385;55.772;37.658;2023-04-08T03:14:24;100926.50;;;6.13
76541;BMP280;65385;55.772;37.658;2023-04-08T03:15:24;100929.16;;;6.27
76541;BMP280;65385;55.772;37.658;2023-04-08T03:16:25;100924.75;;;6.34
76541;BMP280;65385;55.772;37.658;2023-04-08T03:17:26;100931.38;;;6.43
76541;BMP280;65385;55.772;37.658;2023-04-08T03:18:27;100925.59;;;6.47
76541;BMP280;65385;55.772;37.658;2023-04-08T03:19:27;100932.78;;;6.52
76541;BMP280;65385;55.772;37.658;2023-04-08T03:20:28;100929.59;;;6.63
76541;BMP280;65385;55.772;37.658;2023-04-08T03:21:28;100920.00;;;6.70
76541;BMP280;65385;55.772;37.658;2023-04-08T03:22:30;100930.41;;;6.83
76541;BMP280;65385;55.772;37.658;2023-04-08T03:23:31;100927.44;;;6.93
76541;BMP280;65385;55.772;37.658;2023-04-08T03:24:31;100930.41;;;7.03
76541;BMP280;65385;55.772;37.658;2023-04-08T03:25:32;100929.16;;;7.19
76541;BMP280;65385;55.772;37.658;2023-04-08T03:26:32;100932.19;;;7.22
76541;BMP280;65385;55.772;37.658;2023-04-08T03:27:33;100926.56;;;7.19
76541;BMP280;65385;55.772;37.658;2023-04-08T03:28:33;100929.19;;;7.12
76541;BMP280;65385;55.772;37.658;2023-04-08T03:29:34;100925.16;;;7.09
76541;BMP280;65385;55.772;37.658;2023-04-08T03:30:35;100923.16;;;7.25
76541;BMP280;65385;55.772;37.658;2023-04-08T03:31:35;100922.31;;;7.44
76541;BMP280;65385;55.772;37.658;2023-04-08T03:32:36;100921.03;;;7.66
76541;BMP280;65385;55.772;37.658;2023-04-08T03:33:37;100929.34;;;7.94
76541;BMP280;65385;55.772;37.658;2023-04-08T03:34:37;100924.81;;;8.15
76541;BMP280;65385;55.772;37.658;2023-04-08T03:35:38;100929.69;;;8.36
76541;BMP280;65385;55.772;37.658;2023-04-08T03:36:39;100937.56;;;8.54
76541;BMP280;65385;55.772;37.658;2023-04-08T03:37:39;100927.06;;;8.67
76541;BMP280;65385;55.772;37.658;2023-04-08T03:38:40;100941.72;;;8.86
76541;BMP280;65385;55.772;37.658;2023-04-08T03:39:40;100932.16;;;8.99
76541;BMP280;65385;55.772;37.658;2023-04-08T03:40:41;100933.06;;;9.11
76541;BMP280;65385;55.772;37.658;2023-04-08T03:41:41;100932.53;;;9.20
76541;BMP280;65385;55.772;37.658;2023-04-08T03:42:42;100926.88;;;9.41
76541;BMP280;65385;55.772;37.658;2023-04-08T03:43:43;100939.53;;;9.63
76541;BMP280;65385;55.772;37.658;2023-04-08T03:44:43;100930.09;;;9.73
76541;BMP280;65385;55.772;37.658;2023-04-08T03:45:44;100928.25;;;9.92
76541;BMP280;65385;55.772;37.658;2023-04-08T03:46:44;100929.00;;;10.11
76541;BMP280;65385;55.772;37.658;2023-04-08T03:47:45;100925.16;;;10.36
76541;BMP280;65385;55.772;37.658;2023-04-08T03:48:45;100923.97;;;10.62
76541;BMP280;65385;55.772;37.658;2023-04-08T03:49:46;100917.22;;;10.90
76541;BMP280;65385;55.772;37.658;2023-04-08T03:50:46;100921.19;;;11.15
76541;BMP280;65385;55.772;37.658;2023-04-08T03:51:47;100923.31;;;11.30
76541;BMP280;65385;55.772;37.658;2023-04-08T03:52:47;100927.13;;;11.39
76541;BMP280;65385;55.772;37.658;2023-04-08T03:53:48;100928.91;;;11.50
76541;BMP280;65385;55.772;37.658;2023-04-08T03:54:48;100932.31;;;11.62
76541;BMP280;65385;55.772;37.658;2023-04-08T03:55:49;100927.91;;;11.79
76541;BMP280;65385;55.772;37.658;2023-04-08T03:56:50;100925.06;;;11.98
76541;BMP280;65385;55.772;37.658;2023-04-08T03:57:50;100927.13;;;12.12
76541;BMP280;65385;55.772;37.658;2023-04-08T03:58:51;100925.06;;;12.31
76541;BMP280;65385;55.772;37.658;2023-04-08T03:59:52;100925.31;;;12.46
76541;BMP280;65385;55.772;37.658;2023-04-08T04:00:52;100930.84;;;12.66
76541;BMP280;65385;55.772;37.658;2023-04-08T04:01:53;100933.28;;;12.73
76541;BMP280;65385;55.772;37.658;2023-04-08T04:02:54;100937.19;;;12.92
76541;BMP280;65385;55.772;37.658;2023-04-08T04:03:55;100927.47;;;13.09
76541;BMP280;65385;55.772;37.658;2023-04-08T04:04:55;100935.28;;;13.26
76541;BMP280;65385;55.772;37.658;2023-04-08T04:05:56;100928.72;;;13.28
76541;BMP280;65385;55.772;37.658;2023-04-08T04:06:56;100927.00;;;13.39
76541;BMP280;65385;55.772;37.658;2023-04-08T04:07:57;100929.66;;;13.44
76541;BMP280;65385;55.772;37.658;2023-04-08T04:08:57;100933.78;;;13.62
76541;BMP280;65385;55.772;37.658;2023-04-08T04:09:58;100937.41;;;13.82
76541;BMP280;65385;55.772;37.658;2023-04-08T04:10:59;100938.13;;;14.05
76541;BMP280;65385;55.772;37.658;2023-04-08T04:11:59;100938.25;;;14.20
76541;BMP280;65385;55.772;37.658;2023-04-08T04:13:00;100932.03;;;14.41
76541;BMP280;65385;55.772;37.658;2023-04-08T04:14:01;100936.28;;;14.47
76541;BMP280;65385;55.772;37.658;2023-04-08T04:15:01;100931.03;;;14.47
76541;BMP280;65385;55.772;37.658;2023-04-08T04:16:02;100936.59;;;14.51
76541;BMP280;65385;55.772;37.658;2023-04-08T04:17:03;100931.59;;;14.49
76541;BMP280;65385;55.772;37.658;2023-04-08T04:18:03;100929.97;;;14.48
76541;BMP280;65385;55.772;37.658;2023-04-08T04:19:04;100925.50;;;14.49
76541;BMP280;65385;55.772;37.658;2023-04-08T04:20:05;100933.19;;;14.55
76541;BMP280;65385;55.772;37.658;2023-04-08T04:21:06;100932.72;;;14.63
76541;BMP280;65385;55.772;37.658;2023-04-08T04:22:07;100925.88;;;14.67
76541;BMP280;65385;55.772;37.658;2023-04-08T04:23:08;100927.72;;;14.67
76541;BMP280;65385;55.772;37.658;2023-04-08T04:24:08;100937.81;;;14.90
76541;BMP280;65385;55.772;37.658;2023-04-08T04:25:09;100930.72;;;14.85
76541;BMP280;65385;55.772;37.658;2023-04-08T04:26:11;100935.50;;;15.04
76541;BMP280;65385;55.772;37.658;2023-04-08T04:27:12;100925.53;;;15.11
76541;BMP280;65385;55.772;37.658;2023-04-08T04:28:12;100929.19;;;15.10
76541;BMP280;65385;55.772;37.658;2023-04-08T04:29:13;100925.00;;;15.14
76541;BMP280;65385;55.772;37.658;2023-04-08T04:30:13;100929.50;;;15.33
76541;BMP280;65385;55.772;37.658;2023-04-08T04:31:20;100927.94;;;15.32
76541;BMP280;65385;55.772;37.658;2023-04-08T04:32:21;100924.81;;;15.46
76541;BMP280;65385;55.772;37.658;2023-04-08T04:33:21;100937.22;;;15.55
76541;BMP280;65385;55.772;37.658;2023-04-08T04:34:22;100931.94;;;15.55
76541;BMP280;65385;55.772;37.658;2023-04-08T04:35:22;100932.72;;;15.51
76541;BMP280;65385;55.772;37.658;2023-04-08T04:36:23;100931.41;;;15.43
76541;BMP280;65385;55.772;37.658;2023-04-08T04:37:24;100943.25;;;15.35
76541;BMP280;65385;55.772;37.658;2023-04-08T04:38:25;100925.56;;;15.41
76541;BMP280;65385;55.772;37.658;2023-04-08T04:39:26;100941.41;;;15.61
76541;BMP280;65385;55.772;37.658;2023-04-08T04:40:26;100928.53;;;15.75
76541;BMP280;65385;55.772;37.658;2023-04-08T04:41:27;100925.34;;;15.78
76541;BMP280;65385;55.772;37.658;2023-04-08T04:42:27;100925.88;;;15.85
76541;BMP280;65385;55.772;37.658;2023-04-08T04:43:28;100931.94;;;15.95
76541;BMP280;65385;55.772;37.658;2023-04-08T04:44:29;100931.41;;;15.78
76541;BMP280;65385;55.772;37.658;2023-04-08T04:45:29;100926.66;;;15.75
76541;BMP280;65385;55.772;37.658;2023-04-08T04:46:30;100934.84;;;15.74
76541;BMP280;65385;55.772;37.658;2023-04-08T04:47:31;100938.03;;;15.66
76541;BMP280;65385;55.772;37.658;2023-04-08T04:48:32;100938.00;;;15.76
76541;BMP280;65385;55.772;37.658;2023-04-08T04:49:33;100939.84;;;15.90
76541;BMP280;65385;55.772;37.658;2023-04-08T04:50:33;100940.41;;;16.03
76541;BMP280;65385;55.772;37.658;2023-04-08T04:51:34;100930.88;;;16.07
76541;BMP280;65385;55.772;37.658;2023-04-08T04:52:35;100945.88;;;16.21
76541;BMP280;65385;55.772;37.658;2023-04-08T04:53:36;100942.94;;;16.43
76541;BMP280;65385;55.772;37.658;2023-04-08T04:54:37;100940.84;;;16.45
76541;BMP280;65385;55.772;37.658;2023-04-08T04:55:37;100939.19;;;16.59
76541;BMP280;65385;55.772;37.658;2023-04-08T04:56:38;100938.91;;;16.66
76541;BMP280;65385;55.772;37.658;2023-04-08T04:57:38;100943.06;;;16.87
76541;BMP280;65385;55.772;37.658;2023-04-08T04:58:39;100936.34;;;16.99
76541;BMP280;65385;55.772;37.658;2023-04-08T04:59:40;100938.69;;;17.06
76541;BMP280;65385;55.772;37.658;2023-04-08T05:00:40;100933.78;;;16.84
76541;BMP280;65385;55.772;37.658;2023-04-08T05:01:41;100942.25;;;16.86
76541;BMP280;65385;55.772;37.658;2023-04-08T05:02:41;100945.84;;;17.11
76541;BMP280;65385;55.772;37.658;2023-04-08T05:03:42;100940.25;;;17.17
76541;BMP280;65385;55.772;37.658;2023-04-08T05:04:43;100947.06;;;17.23
76541;BMP280;65385;55.772;37.658;2023-04-08T05:05:43;100945.75;;;17.21
76541;BMP280;65385;55.772;37.658;2023-04-08T05:06:44;100941.94;;;17.42
76541;BMP280;65385;55.772;37.658;2023-04-08T05:07:45;100942.84;;;17.61
76541;BMP280;65385;55.772;37.658;2023-04-08T05:08:45;100945.94;;;17.68
76541;BMP280;65385;55.772;37.658;2023-04-08T05:09:46;100941.88;;;17.81
76541;BMP280;65385;55.772;37.658;2023-04-08T05:10:46;100941.66;;;17.72
76541;BMP280;65385;55.772;37.658;2023-04-08T05:11:49;100934.84;;;17.71
76541;BMP280;65385;55.772;37.658;2023-04-08T05:12:50;100949.78;;;17.86
76541;BMP280;65385;55.772;37.658;2023-04-08T05:13:50;100941.72;;;17.96
76541;BMP280;65385;55.772;37.658;2023-04-08T05:14:51;100936.09;;;18.02
76541;BMP280;65385;55.772;37.658;2023-04-08T05:15:51;100940.66;;;17.97
76541;BMP280;65385;55.772;37.658;2023-04-08T05:16:52;100946.06;;;18.10
76541;BMP280;65385;55.772;37.658;2023-04-08T05:17:53;100938.66;;;18.12
76541;BMP280;65385;55.772;37.658;2023-04-08T05:18:53;100939.97;;;18.10
76541;BMP280;65385;55.772;37.658;2023-04-08T05:19:54;100937.16;;;18.01
76541;BMP280;65385;55.772;37.658;2023-04-08T05:20:54;100952.13;;;17.87
76541;BMP280;65385;55.772;37.658;2023-04-08T05:21:55;100957.28;;;17.74
76541;BMP280;65385;55.772;37.658;2023-04-08T05:22:55;100955.97;;;17.76
76541;BMP280;65385;55.772;37.658;2023-04-08T05:23:56;100950.19;;;17.69
76541;BMP280;65385;55.772;37.658;2023-04-08T05:24:57;100946.59;;;17.55
76541;BMP280;65385;55.772;37.658;2023-04-08T05:25:57;100960.34;;;17.57
76541;BMP280;65385;55.772;37.658;2023-04-08T05:26:58;100949.66;;;17.67
76541;BMP280;65385;55.772;37.658;2023-04-08T05:27:58;100958.56;;;17.81
76541;BMP280;65385;55.772;37.658;2023-04-08T05:28:59;100958.00;;;17.84
76541;BMP280;65385;55.772;37.658;2023-04-08T05:29:59;100958.88;;;18.03
76541;BMP280;65385;55.772;37.658;2023-04-08T05:31:00;100953.03;;;18.01
76541;BMP280;65385;55.772;37.658;2023-04-08T05:32:01;100961.53;;;18.03
76541;BMP280;65385;55.772;37.658;2023-04-08T05:33:02;100958.94;;;17.98
76541;BMP280;65385;55.772;37.658;2023-04-08T05:34:02;100959.94;;;18.02
76541;BMP280;65385;55.772;37.658;2023-04-08T05:35:04;100955.34;;;18.13
76541;BMP280;65385;55.772;37.658;2023-04-08T05:36:04;100951.78;;;18.22
76541;BMP280;65385;55.772;37.658;2023-04-08T05:37:05;100955.00;;;18.43
76541;BMP280;65385;55.772;37.658;2023-04-08T05:38:06;100957.91;;;18.65
76541;BMP280;65385;55.772;37.658;2023-04-08T05:39:06;100957.72;;;18.80
76541;BMP280;65385;55.772;37.658;2023-04-08T05:40:07;100965.31;;;18.68
76541;BMP280;65385;55.772;37.658;2023-04-08T05:41:09;100952.81;;;18.93
76541;BMP280;65385;55.772;37.658;2023-04-08T05:42:09;100960.19;;;19.14
76541;BMP280;65385;55.772;37.658;2023-04-08T05:43:12;100956.03;;;19.08
76541;BMP280;65385;55.772;37.658;2023-04-08T05:44:12;100958.50;;;19.18
76541;BMP280;65385;55.772;37.658;2023-04-08T05:45:13;100963.25;;;19.21
76541;BMP280;65385;55.772;37.658;2023-04-08T05:46:14;100954.19;;;19.04
76541;BMP280;65385;55.772;37.658;2023-04-08T05:47:15;100952.19;;;18.77
76541;BMP280;65385;55.772;37.658;2023-04-08T05:48:15;100958.72;;;19.03
76541;BMP280;65385;55.772;37.658;2023-04-08T05:49:16;100954.88;;;19.14
76541;BMP280;65385;55.772;37.658;2023-04-08T05:50:17;100961.03;;;19.28
76541;BMP280;65385;55.772;37.658;2023-04-08T05:51:17;100958.88;;;19.30
76541;BMP280;65385;55.772;37.658;2023-04-08T05:52:18;100962.00;;;19.32
76541;BMP280;65385;55.772;37.658;2023-04-08T05:53:18;100960.59;;;19.21
76541;BMP280;65385;55.772;37.658;2023-04-08T05:54:19;100954.06;;;19.32